createdAt,value
2023-02-11T00:04:14.252Z,102156.22
2023-02-11T00:09:15.544Z,102147.91
2023-02-11T00:14:16.860Z,102159.41
2023-02-11T00:19:18.222Z,102163.75
2023-02-11T00:24:19.605Z,102157.06
2023-02-11T00:29:20.968Z,102159.44
2023-02-11T00:34:22.318Z,102143.72
2023-02-11T00:39:23.682Z,102138.66
2023-02-11T00:44:26.054Z,102133.34
2023-02-11T00:49:27.421Z,102133.44
2023-02-11T00:54:30.044Z,102116.78
2023-02-11T00:59:31.495Z,102127.06
2023-02-11T01:04:32.897Z,102116.66
2023-02-11T01:09:34.398Z,102132.44
2023-02-11T01:14:35.781Z,102123.66
2023-02-11T01:19:38.045Z,102120.91
2023-02-11T01:24:39.882Z,102128.75
2023-02-11T01:29:41.268Z,102102.41
2023-02-11T01:34:42.652Z,102114.00
2023-02-11T01:39:44.282Z,102098.22
2023-02-11T01:44:45.671Z,102106.06
2023-02-11T01:49:57.701Z,102049.69
2023-02-11T01:55:23.769Z,102095.84
2023-02-11T02:00:31.320Z,102093.00
2023-02-11T02:05:54.862Z,102072.84
2023-02-11T02:10:58.368Z,102068.88
2023-02-11T02:16:08.603Z,102068.91
2023-02-11T02:21:14.239Z,102053.19
2023-02-11T02:26:44.170Z,102050.44
2023-02-11T02:32:16.446Z,102056.41
2023-02-11T02:37:39.747Z,102060.72
2023-02-11T02:42:43.188Z,102053.50
2023-02-11T02:47:44.519Z,102070.94
2023-02-11T02:53:24.268Z,102064.81
2023-02-11T02:59:02.309Z,102051.31
2023-02-11T03:04:18.320Z,102051.31
2023-02-11T03:09:45.725Z,102056.09
2023-02-11T03:14:50.616Z,102063.91
2023-02-11T03:19:52.201Z,102028.94
2023-02-11T03:24:55.936Z,102044.69
2023-02-11T03:30:30.061Z,102019.56
2023-02-11T03:35:50.726Z,102001.94
2023-02-11T03:40:55.693Z,102000.34
2023-02-11T03:45:58.817Z,101990.03
2023-02-11T03:51:03.600Z,101978.63
2023-02-11T03:56:09.944Z,101954.38
2023-02-11T04:01:11.612Z,101957.94
2023-02-11T04:06:12.960Z,101974.94
2023-02-11T04:11:14.907Z,101980.00
2023-02-11T04:16:16.308Z,101997.47
2023-02-11T04:21:17.722Z,101991.13
2023-02-11T04:26:19.162Z,102009.56
2023-02-11T04:31:20.790Z,102009.28
2023-02-11T04:36:22.266Z,102007.25
2023-02-11T04:41:23.637Z,102000.13
2023-02-11T04:46:25.056Z,101966.00
2023-02-11T04:51:26.398Z,101982.25
2023-02-11T04:56:27.686Z,101969.31
2023-02-11T05:01:29.118Z,101959.22
2023-02-11T05:06:30.613Z,101963.31
2023-02-11T05:11:31.994Z,101930.34
2023-02-11T05:16:33.719Z,101960.13
2023-02-11T05:21:35.086Z,101954.09
2023-02-11T05:26:36.403Z,101965.53
2023-02-11T05:31:37.773Z,101979.19
2023-02-11T05:36:39.085Z,101957.53
2023-02-11T05:41:40.443Z,101966.75
2023-02-11T05:46:41.869Z,101938.91
2023-02-11T05:51:43.465Z,101976.44
2023-02-11T05:56:45.125Z,101975.44
2023-02-11T06:01:46.513Z,101967.50
2023-02-11T06:06:47.928Z,101957.25
2023-02-11T06:11:49.271Z,101972.03
2023-02-11T06:16:50.549Z,101970.09
2023-02-11T06:21:51.896Z,101981.28
2023-02-11T06:26:53.263Z,101975.06
2023-02-11T06:31:54.875Z,101961.25
2023-02-11T06:36:56.971Z,101963.09
2023-02-11T06:41:58.447Z,101961.59
2023-02-11T06:46:59.751Z,101969.69
2023-02-11T06:52:01.166Z,101949.91
2023-02-11T06:57:02.562Z,101955.09
2023-02-11T07:02:04.006Z,101957.25
2023-02-11T07:07:05.493Z,101947.78
2023-02-11T07:12:09.581Z,101967.69
2023-02-11T07:17:10.982Z,101972.63
2023-02-11T07:22:12.333Z,101973.50
2023-02-11T07:27:13.698Z,101971.34
2023-02-11T07:32:15.091Z,101942.56
2023-02-11T07:37:16.823Z,101940.81
2023-02-11T07:42:18.303Z,101963.88
2023-02-11T07:47:19.627Z,101984.72
2023-02-11T07:52:21.322Z,101979.19
2023-02-11T07:57:22.699Z,101998.72
2023-02-11T08:02:24.435Z,102010.28
2023-02-11T08:07:26.057Z,101993.59
2023-02-11T08:12:27.391Z,102003.69
2023-02-11T08:17:28.818Z,102002.75
2023-02-11T08:22:34.885Z,102020.50
2023-02-11T08:27:36.246Z,102019.50
2023-02-11T08:32:39.359Z,102025.72
2023-02-11T08:37:40.971Z,102051.97
2023-02-11T08:42:42.668Z,102049.00
2023-02-11T08:47:43.993Z,102045.91
2023-02-11T08:52:45.374Z,102037.19
2023-02-11T08:57:46.758Z,102053.19
2023-02-11T09:02:48.153Z,102012.78
2023-02-11T09:07:49.476Z,102048.13
2023-02-11T09:12:50.788Z,102068.97
2023-02-11T09:17:52.128Z,102050.03
2023-02-11T09:22:54.583Z,102061.63
2023-02-11T09:27:56.061Z,102054.97
2023-02-11T09:32:57.408Z,102050.00
2023-02-11T09:37:58.784Z,102074.50
2023-02-11T09:43:16.070Z,102080.97
2023-02-11T09:48:19.988Z,102080.59
2023-02-11T09:53:24.121Z,102068.03
2023-02-11T09:58:33.404Z,102058.16
2023-02-11T10:03:51.853Z,102059.84
2023-02-11T10:09:12.094Z,102076.03
2023-02-11T10:14:19.451Z,102072.31
2023-02-11T10:19:30.053Z,102070.06
2023-02-11T10:24:31.599Z,102046.69
2023-02-11T10:29:40.564Z,102055.72
2023-02-11T10:34:42.418Z,102063.25
2023-02-11T10:39:43.833Z,102079.25
2023-02-11T10:45:02.647Z,102077.34
2023-02-11T10:50:21.457Z,102092.41
2023-02-11T10:55:28.013Z,102084.66
2023-02-11T11:00:38.764Z,102073.09
2023-02-11T11:06:05.304Z,102076.78
2023-02-11T11:11:09.456Z,102057.22
2023-02-11T11:16:13.904Z,102068.13
2023-02-11T11:21:22.732Z,102078.41
2023-02-11T11:26:39.483Z,102068.34
2023-02-11T11:31:51.959Z,102070.75
2023-02-11T11:36:54.804Z,102043.97
2023-02-11T11:42:03.189Z,102050.16
2023-02-11T11:47:21.004Z,102060.38
2023-02-11T11:53:01.174Z,102043.25
2023-02-11T11:58:02.486Z,102048.84
2023-02-11T12:03:24.989Z,102055.22
2023-02-11T12:08:53.720Z,102028.78
2023-02-11T12:14:19.532Z,102018.03
2023-02-11T12:19:27.547Z,102032.63
2023-02-11T12:25:06.347Z,102042.81
2023-02-11T12:30:24.244Z,102034.81
2023-02-11T12:35:32.511Z,102034.72
2023-02-11T12:40:46.415Z,102037.91
2023-02-11T12:46:30.338Z,102039.75
2023-02-11T12:51:34.677Z,102037.34
2023-02-11T12:57:03.359Z,102023.97
2023-02-11T13:02:15.929Z,102017.88
2023-02-11T13:07:33.154Z,102023.38
2023-02-11T13:12:55.595Z,102019.47
2023-02-11T13:18:19.178Z,102003.88
2023-02-11T13:23:31.761Z,102014.16
2023-02-11T13:28:46.208Z,102002.72
2023-02-11T13:33:49.772Z,102001.53
2023-02-11T13:38:58.678Z,102000.59
2023-02-11T13:44:27.557Z,102003.09
2023-02-11T13:49:36.979Z,101996.28
2023-02-11T13:54:39.573Z,101988.66
2023-02-11T13:59:47.624Z,101987.06
2023-02-11T14:05:23.104Z,101988.91
2023-02-11T14:10:42.760Z,102003.44
2023-02-11T14:15:46.391Z,101990.50
2023-02-11T14:20:48.048Z,101998.63
2023-02-11T14:26:04.594Z,101986.16
2023-02-11T14:31:29.616Z,101998.44
2023-02-11T14:36:31.048Z,102008.22
2023-02-11T14:41:40.723Z,102000.59
2023-02-11T14:46:47.420Z,101991.59
2023-02-11T14:51:49.040Z,102016.31
2023-02-11T14:57:17.192Z,102028.91
2023-02-11T15:02:24.335Z,102014.16
2023-02-11T15:07:26.740Z,102020.81
2023-02-11T15:12:28.515Z,102025.94
2023-02-11T15:17:31.957Z,102021.16
2023-02-11T15:22:36.795Z,102026.38
2023-02-11T15:27:39.823Z,102036.84
2023-02-11T15:32:44.830Z,102044.00
2023-02-11T15:37:47.767Z,102047.59
2023-02-11T15:43:05.802Z,102050.19
2023-02-11T15:48:13.116Z,102054.59
2023-02-11T15:53:25.707Z,102054.06
2023-02-11T15:58:27.299Z,102051.66
2023-02-11T16:03:32.673Z,102053.50
2023-02-11T16:08:35.395Z,102059.19
2023-02-11T16:13:47.349Z,102060.78
2023-02-11T16:19:03.153Z,102059.72
2023-02-11T16:24:07.883Z,102052.91
2023-02-11T16:29:18.361Z,102051.88
2023-02-11T16:34:22.160Z,102059.78
2023-02-11T16:39:23.564Z,102068.91
2023-02-11T16:44:25.093Z,102060.88
2023-02-11T16:49:29.776Z,102073.03
2023-02-11T16:54:31.262Z,102086.31
2023-02-11T16:59:32.690Z,102074.00
2023-02-11T17:04:34.448Z,102074.78
2023-02-11T17:09:35.848Z,102068.19
2023-02-11T17:14:37.291Z,102089.34
2023-02-11T17:19:39.104Z,102087.00
2023-02-11T17:24:40.486Z,102100.84
2023-02-11T17:29:41.832Z,102116.81
2023-02-11T17:34:43.252Z,102107.94
2023-02-11T17:39:44.827Z,102110.53
2023-02-11T17:44:46.813Z,102131.66
2023-02-11T17:49:48.190Z,102128.09
2023-02-11T17:54:50.013Z,102129.84
2023-02-11T17:59:51.537Z,102131.44
2023-02-11T18:04:53.313Z,102121.31
2023-02-11T18:09:54.755Z,102127.13
2023-02-11T18:14:58.048Z,102135.03
2023-02-11T18:19:59.845Z,102127.97
2023-02-11T18:25:01.159Z,102126.59
2023-02-11T18:30:02.843Z,102119.81
2023-02-11T18:35:04.453Z,102125.94
2023-02-11T18:40:06.521Z,102116.84
2023-02-11T18:45:11.492Z,102104.38
2023-02-11T18:50:15.438Z,102123.41
2023-02-11T18:55:16.862Z,102132.78
2023-02-11T19:00:19.521Z,102132.50
2023-02-11T19:05:21.573Z,102132.38
2023-02-11T19:10:23.512Z,102154.84
2023-02-11T19:15:26.182Z,102135.81
2023-02-11T19:20:27.656Z,102149.66
2023-02-11T19:25:29.238Z,102166.84
2023-02-11T19:30:30.766Z,102157.91
2023-02-11T19:35:37.952Z,102180.66
2023-02-11T19:40:39.632Z,102179.22
2023-02-11T19:45:40.942Z,102163.84
2023-02-11T19:50:42.348Z,102186.59
2023-02-11T19:55:43.899Z,102175.94
2023-02-11T20:00:45.234Z,102190.47
2023-02-11T20:05:48.326Z,102172.03
2023-02-11T20:10:49.672Z,102181.91
2023-02-11T20:15:51.462Z,102176.84
2023-02-11T20:20:53.085Z,102177.63
2023-02-11T20:25:54.620Z,102166.59
2023-02-11T20:30:59.891Z,102174.91
2023-02-11T20:36:08.511Z,102174.13
2023-02-11T20:41:18.083Z,102173.41
2023-02-11T20:46:23.692Z,102165.56
2023-02-11T20:51:31.813Z,102167.34
2023-02-11T20:56:36.787Z,102162.91
2023-02-11T21:01:40.979Z,102160.56
2023-02-11T21:06:45.783Z,102181.28
2023-02-11T21:11:48.611Z,102181.19
2023-02-11T21:16:50.730Z,102190.91
2023-02-11T21:21:52.778Z,102198.69
2023-02-11T21:26:54.662Z,102203.25
2023-02-11T21:31:56.134Z,102212.69
2023-02-11T21:36:58.673Z,102203.25
2023-02-11T21:42:00.195Z,102203.13
2023-02-11T21:47:01.604Z,102226.03
2023-02-11T21:52:03.060Z,102224.47
2023-02-11T21:57:04.618Z,102238.44
2023-02-11T22:02:06.011Z,102225.31
2023-02-11T22:07:07.416Z,102225.00
2023-02-11T22:12:08.880Z,102212.69
2023-02-11T22:17:10.273Z,102224.22
2023-02-11T22:22:13.404Z,102218.13
2023-02-11T22:27:18.460Z,102216.22
2023-02-11T22:32:21.580Z,102215.34
2023-02-11T22:37:22.993Z,102211.66
2023-02-11T22:42:24.294Z,102228.19
2023-02-11T22:47:27.477Z,102230.78
2023-02-11T22:52:29.376Z,102236.09
2023-02-11T22:57:30.754Z,102219.31
2023-02-11T23:02:32.540Z,102241.28
2023-02-11T23:07:33.905Z,102226.75
2023-02-11T23:12:35.352Z,102236.44
2023-02-11T23:17:36.683Z,102260.09
2023-02-11T23:22:38.023Z,102246.31
2023-02-11T23:27:39.310Z,102263.94
2023-02-11T23:32:40.769Z,102269.19
2023-02-11T23:37:42.068Z,102265.81
2023-02-11T23:42:43.995Z,102264.31
2023-02-11T23:47:45.777Z,102261.34
2023-02-11T23:52:49.019Z,102266.03
2023-02-11T23:57:50.393Z,102257.38
